Time;durP1;ratioP1;P1;durP2;ratioP2;P2;SDS_P1;SDS_P2;PMS_P1;PMS_P2;Temp;Humidity;BMP_temperature;BMP_pressure;BME280_temperature;BME280_humidity;BME280_pressure;Samples;Min_cycle;Max_cycle;Signal;HPM_P1;HPM_P2
2022/10/05 00:01:56;;;;;;;11.52;8.45;;;;;;;12.13;77.73;101155.13;4148103;28;20045;-64
2022/10/05 00:04:10;;;;;;;15.98;11.63;;;;;;;12.15;77.46;101158.66;4149934;28;20048;-64
2022/10/05 00:06:12;;;;;;;18.65;12.93;;;;;;;12.13;77.49;101159.47;4146259;28;20065;-64
2022/10/05 00:08:21;;;;;;;14.23;8.45;;;;;;;12.09;77.84;101162.88;4156230;28;20034;-64
2022/10/05 00:10:24;;;;;;;14.98;7.78;;;;;;;12.08;77.91;101169.81;4147973;28;20034;-64
2022/10/05 00:12:28;;;;;;;11.07;6.57;;;;;;;12.10;77.85;101173.31;4148047;28;20034;-64
2022/10/05 00:14:34;;;;;;;13.60;7.97;;;;;;;12.10;77.84;101165.50;4146078;28;20507;-64
2022/10/05 00:16:37;;;;;;;13.23;7.50;;;;;;;12.10;77.61;101178.53;4137384;28;20038;-64
2022/10/05 00:18:40;;;;;;;12.68;8.25;;;;;;;12.09;77.83;101171.59;4155994;28;20045;-64
2022/10/05 00:20:44;;;;;;;10.43;7.45;;;;;;;12.06;77.77;101168.88;4130622;28;20081;-64
2022/10/05 00:22:47;;;;;;;14.27;9.48;;;;;;;12.03;77.54;101166.22;4147961;28;20038;-64
2022/10/05 00:24:59;;;;;;;15.05;10.55;;;;;;;12.04;77.69;101166.25;4129446;28;20401;-64
2022/10/05 00:27:14;;;;;;;14.10;8.85;;;;;;;12.02;77.31;101169.69;4147933;28;20038;-64
2022/10/05 00:29:21;;;;;;;15.23;9.98;;;;;;;11.99;77.50;101169.66;4157893;28;20042;-64
2022/10/05 00:31:26;;;;;;;9.77;6.65;;;;;;;11.97;77.81;101174.84;4160818;28;20033;-64
2022/10/05 00:33:29;;;;;;;15.45;7.95;;;;;;;11.99;77.51;101177.47;4145910;28;20041;-64
2022/10/05 00:35:35;;;;;;;10.85;6.40;;;;;;;11.98;77.80;101178.31;4129168;28;20543;-64
2022/10/05 00:37:38;;;;;;;9.50;6.82;;;;;;;11.96;77.69;101186.09;4138707;28;20042;-64
2022/10/05 00:39:42;;;;;;;12.90;7.30;;;;;;;11.95;77.67;101180.84;4142831;28;20041;-64
2022/10/05 00:42:03;;;;;;;14.93;7.45;;;;;;;11.96;77.34;101174.78;4163849;28;20048;-64
2022/10/05 00:44:24;;;;;;;9.73;6.63;;;;;;;11.94;77.45;101169.53;4145858;28;20041;-64
2022/10/05 00:46:35;;;;;;;12.77;7.60;;;;;;;11.91;77.62;101159.00;4139802;28;20052;-64
2022/10/05 00:48:45;;;;;;;13.80;8.73;;;;;;;11.88;77.30;101164.16;4155830;28;20029;-64
2022/10/05 00:51:17;;;;;;;11.13;7.97;;;;;;;11.88;77.52;101144.22;4142150;28;20504;-64
2022/10/05 00:53:32;;;;;;;10.85;8.02;;;;;;;11.86;77.17;101151.13;4111719;28;20046;-64
2022/10/05 00:55:46;;;;;;;10.90;7.22;;;;;;;11.83;77.04;101140.63;4130328;28;20100;-64
2022/10/05 00:58:06;;;;;;;13.65;8.27;;;;;;;11.84;77.12;101131.97;4114294;28;20047;-64
2022/10/05 01:00:12;;;;;;;12.07;8.32;;;;;;;11.81;77.35;101134.53;4143702;28;21385;-64
2022/10/05 01:02:21;;;;;;;12.15;8.38;;;;;;;11.91;77.23;101132.97;4141685;28;20518;-64
2022/10/05 01:04:28;;;;;;;10.45;7.75;;;;;;;11.88;77.01;101125.09;4129277;28;20050;-64
2022/10/05 01:06:39;;;;;;;10.80;7.82;;;;;;;11.84;77.16;101121.56;4164002;28;20050;-64
2022/10/05 01:08:54;;;;;;;11.57;7.82;;;;;;;11.86;77.29;101114.63;4146324;28;20416;-64
2022/10/05 01:11:05;;;;;;;10.88;7.07;;;;;;;11.78;77.59;101111.00;4161915;28;20041;-64
2022/10/05 01:13:18;;;;;;;14.68;9.98;;;;;;;11.92;77.34;101113.03;4143300;28;20049;-64
2022/10/05 01:15:31;;;;;;;16.83;10.50;;;;;;;11.80;77.53;101103.25;4130190;28;20089;-64
2022/10/05 01:17:40;;;;;;;12.45;7.32;;;;;;;11.80;77.71;101109.31;4130047;28;20073;-64
2022/10/05 01:20:06;;;;;;;16.02;9.48;;;;;;;11.78;78.34;101116.19;4141968;28;20422;-64
2022/10/05 01:22:24;;;;;;;16.92;9.55;;;;;;;11.80;78.01;101111.91;4157229;28;20042;-64
2022/10/05 01:24:43;;;;;;;13.50;9.48;;;;;;;11.87;78.63;101120.72;4129101;28;20053;-64
2022/10/05 01:27:07;;;;;;;15.23;10.25;;;;;;;11.87;78.41;101121.63;4130317;28;20129;-64
2022/10/05 01:29:18;;;;;;;12.65;8.93;;;;;;;11.82;78.53;101123.25;4137113;28;20038;-64
2022/10/05 01:31:26;;;;;;;15.40;9.27;;;;;;;11.81;78.86;101116.28;4154295;28;20046;-64
2022/10/05 01:33:35;;;;;;;15.18;8.95;;;;;;;11.80;78.60;101117.13;4145490;28;20038;-64
2022/10/05 01:35:46;;;;;;;13.30;9.57;;;;;;;11.81;78.34;101118.00;4162514;28;20037;-64
2022/10/05 01:38:03;;;;;;;17.23;9.82;;;;;;;11.78;78.16;101116.19;4144938;28;20134;-64
2022/10/05 01:40:12;;;;;;;13.13;8.57;;;;;;;11.73;78.60;101117.84;4153107;28;20038;-64
2022/10/05 01:42:23;;;;;;;11.98;9.27;;;;;;;11.75;78.31;101118.75;4137881;28;20129;-64
2022/10/05 01:44:32;;;;;;;12.93;9.00;;;;;;;11.76;78.21;101122.25;4142180;28;20085;-64
2022/10/05 01:46:41;;;;;;;12.88;8.82;;;;;;;11.79;78.85;101127.53;4155664;28;20120;-64
2022/10/05 01:48:55;;;;;;;14.70;10.00;;;;;;;11.84;78.06;101120.66;4147830;28;20048;-63
2022/10/05 01:51:10;;;;;;;16.40;9.55;;;;;;;11.80;78.55;101114.53;4166359;28;20496;-63
2022/10/05 01:53:24;;;;;;;13.80;9.23;;;;;;;11.81;77.88;101118.00;4146681;28;20096;-64
2022/10/05 01:55:34;;;;;;;15.45;8.45;;;;;;;11.76;78.70;101117.91;4140405;28;20074;-63
2022/10/05 01:57:50;;;;;;;13.23;7.10;;;;;;;11.76;78.59;101112.69;4160261;28;20507;-63
2022/10/05 02:00:04;;;;;;;15.63;9.38;;;;;;;11.77;78.42;101117.06;4148470;28;20072;-63
2022/10/05 02:02:19;;;;;;;14.02;9.60;;;;;;;11.71;78.38;101122.16;4160996;28;20042;-63
2022/10/05 02:04:29;;;;;;;11.35;8.77;;;;;;;11.71;78.09;101119.56;4131886;28;20030;-64
2022/10/05 02:06:53;;;;;;;13.82;8.57;;;;;;;11.70;78.35;101121.28;4156841;28;20052;-63
2022/10/05 02:09:04;;;;;;;13.80;8.23;;;;;;;11.73;78.69;101119.59;4132585;28;20038;-63
2022/10/05 02:11:09;;;;;;;14.30;9.05;;;;;;;11.67;78.99;101128.16;4149968;28;20108;-63
2022/10/05 02:13:17;;;;;;;16.27;9.38;;;;;;;11.79;78.58;101127.53;4138920;28;20045;-64
2022/10/05 02:15:25;;;;;;;10.93;7.13;;;;;;;11.70;78.62;101120.41;4132240;28;20100;-64
2022/10/05 02:17:35;;;;;;;15.25;8.68;;;;;;;11.67;78.98;101125.56;4148696;28;20113;-63
2022/10/05 02:19:41;;;;;;;10.20;6.45;;;;;;;11.63;78.55;101131.53;4148514;28;20553;-63
2022/10/05 02:21:48;;;;;;;12.13;7.15;;;;;;;11.59;79.27;101129.72;4148645;28;20458;-64
2022/10/05 02:23:55;;;;;;;11.48;7.72;;;;;;;11.60;79.31;101123.66;4149220;28;20060;-64
2022/10/05 02:26:00;;;;;;;11.75;7.88;;;;;;;11.56;78.55;101121.84;4133074;28;20043;-64
2022/10/05 02:28:10;;;;;;;12.60;9.13;;;;;;;11.58;78.79;101120.13;4132392;28;20034;-64
2022/10/05 02:30:17;;;;;;;13.05;8.90;;;;;;;11.56;78.95;101114.03;4116043;28;20134;-64
2022/10/05 02:32:29;;;;;;;15.85;8.75;;;;;;;11.55;79.14;101110.56;4132349;28;20067;-64
2022/10/05 02:34:37;;;;;;;12.05;8.13;;;;;;;11.56;78.72;101099.28;4133744;28;20497;-64
2022/10/05 02:36:53;;;;;;;13.45;9.32;;;;;;;11.53;78.83;101100.13;4148132;28;20053;-64
2022/10/05 02:39:05;;;;;;;12.95;8.52;;;;;;;11.54;78.63;101098.38;4132174;28;20512;-64
2022/10/05 02:41:18;;;;;;;14.52;9.23;;;;;;;11.58;78.48;101086.28;4132185;28;20093;-63
2022/10/05 02:43:30;;;;;;;17.05;9.98;;;;;;;11.60;78.09;101075.06;4131261;28;20046;-64
2022/10/05 02:45:43;;;;;;;17.17;10.20;;;;;;;11.62;78.49;101077.69;4148232;28;20048;-66
2022/10/05 02:47:55;;;;;;;15.77;8.77;;;;;;;11.58;78.46;101078.47;4144491;28;20117;-63
2022/10/05 02:50:03;;;;;;;13.23;8.80;;;;;;;11.62;78.47;101077.69;4141260;28;20037;-63
2022/10/05 02:52:12;;;;;;;14.38;9.45;;;;;;;11.53;78.88;101068.88;4131919;28;20485;-64
2022/10/05 02:54:27;;;;;;;13.25;9.10;;;;;;;11.59;78.58;101073.28;4163642;28;20095;-64
2022/10/05 02:56:40;;;;;;;13.68;8.73;;;;;;;11.52;78.44;101074.91;4148104;28;20519;-63
2022/10/05 02:58:50;;;;;;;16.45;8.85;;;;;;;11.51;78.99;101070.53;4151963;28;20120;-64
2022/10/05 03:00:59;;;;;;;14.02;9.18;;;;;;;11.52;78.78;101072.31;4163827;28;20499;-63
2022/10/05 03:03:10;;;;;;;14.45;8.57;;;;;;;11.51;78.46;101075.75;4136711;28;20088;-64
2022/10/05 03:05:21;;;;;;;16.00;9.90;;;;;;;11.48;79.00;101069.63;4147286;28;20048;-63
2022/10/05 03:07:30;;;;;;;17.35;9.77;;;;;;;11.54;78.49;101067.13;4147852;28;20514;-63
2022/10/05 03:09:41;;;;;;;14.35;9.90;;;;;;;11.58;78.56;101070.66;4147852;28;20128;-63
2022/10/05 03:11:50;;;;;;;18.00;9.23;;;;;;;11.56;78.52;101061.94;4145482;28;20050;-64
2022/10/05 03:14:01;;;;;;;13.52;9.13;;;;;;;11.47;78.74;101063.50;4155429;28;20045;-63
2022/10/05 03:16:20;;;;;;;18.73;10.55;;;;;;;11.55;78.50;101060.19;4147354;28;20042;-63
2022/10/05 03:18:38;;;;;;;15.18;10.25;;;;;;;11.46;78.61;101053.97;4117036;28;20143;-63
2022/10/05 03:20:48;;;;;;;11.75;8.57;;;;;;;11.50;78.43;101060.09;4131757;28;20042;-63
2022/10/05 03:22:57;;;;;;;18.00;10.07;;;;;;;11.45;78.48;101053.94;4146883;28;20471;-63
2022/10/05 03:25:31;;;;;;;11.93;8.75;;;;;;;11.42;78.82;101051.25;4162453;28;20064;-63
2022/10/05 03:27:43;;;;;;;14.45;9.48;;;;;;;11.39;79.21;101059.00;4157649;28;20539;-63
2022/10/05 03:29:52;;;;;;;14.23;10.05;;;;;;;11.41;78.74;101049.50;4148736;28;20034;-63
2022/10/05 03:32:05;;;;;;;13.88;9.93;;;;;;;11.42;79.10;101054.75;4131297;28;20042;-64
2022/10/05 03:34:16;;;;;;;13.68;10.15;;;;;;;11.53;78.79;101053.25;4130239;28;20121;-64
2022/10/05 03:36:26;;;;;;;12.52;9.15;;;;;;;11.48;78.84;101060.06;4159019;28;20048;-63
2022/10/05 03:38:37;;;;;;;12.85;8.65;;;;;;;11.47;78.60;101062.66;4160898;28;20044;-63
2022/10/05 03:40:46;;;;;;;12.60;9.60;;;;;;;11.37;79.37;101063.31;4146314;28;20052;-63
2022/10/05 03:43:05;;;;;;;11.70;9.27;;;;;;;11.38;79.41;101065.94;4163701;28;20503;-63
2022/10/05 03:45:18;;;;;;;14.52;10.82;;;;;;;11.44;79.12;101070.41;4146730;28;20046;-63
2022/10/05 03:47:28;;;;;;;14.07;10.57;;;;;;;11.37;80.04;101066.78;4145838;28;20041;-63
2022/10/05 03:49:47;;;;;;;12.68;8.27;;;;;;;11.36;79.69;101075.44;4143255;28;20030;-62
2022/10/05 03:51:55;;;;;;;12.02;9.43;;;;;;;11.43;79.72;101071.22;4143648;28;20049;-63
2022/10/05 03:54:05;;;;;;;19.85;10.50;;;;;;;11.40;79.20;101076.38;4143992;28;20067;-64
2022/10/05 03:56:15;;;;;;;12.48;8.95;;;;;;;11.33;79.28;101073.66;4146267;28;20099;-63
2022/10/05 03:58:24;;;;;;;15.57;10.68;;;;;;;11.38;79.97;101084.16;4141212;28;20050;-63
2022/10/05 04:00:28;;;;;;;15.93;11.63;;;;;;;11.40;80.03;101086.78;4138285;28;20042;-63
2022/10/05 04:02:41;;;;;;;14.85;10.65;;;;;;;11.41;79.33;101083.34;4146976;28;20077;-63
2022/10/05 04:04:52;;;;;;;16.67;10.82;;;;;;;11.40;79.67;101086.78;4142566;28;20034;-63
2022/10/05 04:06:57;;;;;;;13.68;9.82;;;;;;;11.35;79.11;101086.69;4155907;28;20038;-63
2022/10/05 04:09:05;;;;;;;12.57;9.45;;;;;;;11.33;79.48;101088.38;4143998;28;20042;-63
2022/10/05 04:11:14;;;;;;;21.20;10.55;;;;;;;11.33;79.52;101090.97;4157724;28;20057;-63
2022/10/05 04:13:23;;;;;;;10.98;8.75;;;;;;;11.33;79.02;101083.16;4153534;28;20037;-63
2022/10/05 04:15:33;;;;;;;15.00;10.45;;;;;;;11.33;79.49;101085.78;4134711;28;20035;-63
2022/10/05 04:17:42;;;;;;;15.30;10.15;;;;;;;11.32;79.66;101084.91;4141467;28;20044;-64
2022/10/05 04:19:56;;;;;;;15.93;10.48;;;;;;;11.32;79.11;101082.31;4127777;28;20046;-63
2022/10/05 04:22:07;;;;;;;16.75;10.48;;;;;;;11.38;79.23;101086.75;4122735;28;20532;-64
2022/10/05 04:24:17;;;;;;;15.02;9.55;;;;;;;11.28;79.55;101082.22;4138059;28;20058;-63
2022/10/05 04:26:33;;;;;;;13.05;9.30;;;;;;;11.31;79.49;101087.47;4130648;28;20129;-63
2022/10/05 04:28:45;;;;;;;13.60;10.57;;;;;;;11.37;79.64;101078.91;4122227;28;20517;-63
2022/10/05 04:30:52;;;;;;;16.10;9.70;;;;;;;11.34;79.42;101077.13;4130329;28;20435;-63
2022/10/05 04:32:59;;;;;;;15.48;11.60;;;;;;;11.40;79.51;101084.19;4146176;28;20069;-63
2022/10/05 04:35:33;;;;;;;15.90;9.90;;;;;;;11.29;79.44;101090.06;4143631;28;20080;-63
2022/10/05 04:37:47;;;;;;;15.95;10.88;;;;;;;11.26;79.46;101086.53;4137569;28;20054;-63
2022/10/05 04:40:04;;;;;;;9.93;8.45;;;;;;;11.15;80.32;101092.34;4114244;28;20043;-63
2022/10/05 04:42:15;;;;;;;12.20;9.20;;;;;;;11.10;80.46;101098.31;4130421;28;20471;-63
2022/10/05 04:44:36;;;;;;;16.15;11.40;;;;;;;11.16;80.39;101094.09;4129486;28;20567;-63
2022/10/05 04:46:57;;;;;;;15.98;12.00;;;;;;;11.16;80.63;101095.84;4145961;28;20038;-63
2022/10/05 04:49:25;;;;;;;14.13;9.90;;;;;;;11.22;79.98;101090.75;4156136;28;20052;-63
2022/10/05 04:51:37;;;;;;;18.63;12.10;;;;;;;11.26;79.53;101091.72;4140239;28;20058;-63
2022/10/05 04:53:49;;;;;;;12.65;10.35;;;;;;;11.21;79.80;101095.94;4145761;28;20107;-63
2022/10/05 04:55:58;;;;;;;14.38;10.00;;;;;;;11.22;80.07;101082.09;4130172;28;20042;-64
2022/10/05 04:58:09;;;;;;;17.42;11.45;;;;;;;11.26;79.49;101090.00;4145624;28;20132;-63
2022/10/05 05:00:22;;;;;;;15.75;11.38;;;;;;;11.21;79.92;101088.13;4146434;28;20065;-63
2022/10/05 05:02:38;;;;;;;13.75;10.13;;;;;;;11.18;80.42;101089.84;4162841;28;20048;-63
2022/10/05 05:05:14;;;;;;;18.63;10.32;;;;;;;11.18;79.70;101097.63;4145605;28;20045;-63
2022/10/05 05:07:36;;;;;;;13.93;11.27;;;;;;;11.20;79.29;101095.06;4101273;28;20420;-63
2022/10/05 05:10:01;;;;;;;11.75;8.85;;;;;;;11.14;79.34;101100.13;4145419;28;20041;-63
2022/10/05 05:12:18;;;;;;;13.35;10.77;;;;;;;11.16;79.24;101099.31;4140194;28;20511;-63
2022/10/05 05:14:41;;;;;;;18.20;11.82;;;;;;;11.20;79.03;101105.47;4129366;28;20046;-63
2022/10/05 05:16:49;;;;;;;24.25;10.95;;;;;;;11.12;79.37;101102.69;4158860;28;20045;-63
2022/10/05 05:19:17;;;;;;;16.13;10.60;;;;;;;11.12;79.15;101101.81;4155627;28;20099;-63
2022/10/05 05:21:33;;;;;;;16.20;10.70;;;;;;;11.11;79.40;101105.25;4145485;28;20125;-63
2022/10/05 05:23:44;;;;;;;15.10;10.65;;;;;;;11.06;79.77;101107.75;4142232;28;22169;-63
2022/10/05 05:25:57;;;;;;;14.90;9.45;;;;;;;11.07;79.55;101112.13;4150585;28;20088;-64
2022/10/05 05:28:15;;;;;;;13.93;10.20;;;;;;;11.07;79.50;101125.13;4133185;28;20096;-64
2022/10/05 05:30:21;;;;;;;12.65;8.63;;;;;;;11.06;79.67;101123.38;4135714;28;20205;-64
2022/10/05 05:32:38;;;;;;;12.52;9.40;;;;;;;11.07;79.26;101135.53;4141801;28;20504;-63
2022/10/05 05:34:56;;;;;;;17.08;11.27;;;;;;;11.15;79.43;101136.56;4163738;28;20045;-63
2022/10/05 05:37:04;;;;;;;13.05;9.88;;;;;;;11.08;80.01;101131.22;4133001;28;20042;-64
2022/10/05 05:39:24;;;;;;;15.93;11.25;;;;;;;11.08;79.64;101141.63;4165648;28;20042;-64
2022/10/05 05:41:35;;;;;;;17.60;11.52;;;;;;;11.12;80.26;101141.72;4132026;28;20092;-63
2022/10/05 05:43:59;;;;;;;16.15;11.95;;;;;;;11.14;79.82;101150.47;4147658;28;20037;-64
2022/10/05 05:46:10;;;;;;;19.15;12.48;;;;;;;11.17;79.70;101152.25;4149127;28;20030;-63
2022/10/05 05:48:19;;;;;;;16.33;11.43;;;;;;;11.13;79.86;101153.03;4132921;28;20097;-63
2022/10/05 05:50:41;;;;;;;16.58;9.32;;;;;;;11.13;79.94;101156.50;4148941;28;20376;-63
2022/10/05 05:52:49;;;;;;;13.40;10.18;;;;;;;11.11;80.56;101157.28;4148293;28;20503;-63
2022/10/05 05:54:58;;;;;;;14.70;11.65;;;;;;;11.15;81.08;101157.41;4140058;28;20076;-63
2022/10/05 05:57:10;;;;;;;19.65;12.85;;;;;;;11.16;80.33;101151.34;4116596;28;20134;-63
2022/10/05 05:59:22;;;;;;;20.65;12.73;;;;;;;11.05;80.65;101155.44;4148764;28;20522;-63
2022/10/05 06:01:30;;;;;;;16.42;11.68;;;;;;;11.05;81.36;101154.56;4152132;28;20042;-63
2022/10/05 06:03:46;;;;;;;17.67;13.38;;;;;;;11.10;81.26;101160.75;4157562;28;20480;-63
2022/10/05 06:05:53;;;;;;;23.38;14.73;;;;;;;11.24;81.47;101163.66;4140780;28;20427;-63
2022/10/05 06:08:01;;;;;;;22.05;15.65;;;;;;;11.23;81.22;101157.59;4148883;28;20044;-63
2022/10/05 06:10:29;;;;;;;20.17;14.70;;;;;;;11.11;81.15;101167.72;4146420;28;20037;-63
2022/10/05 06:12:45;;;;;;;19.20;15.02;;;;;;;11.05;81.90;101168.44;4147921;28;20064;-63
2022/10/05 06:14:53;;;;;;;29.80;17.73;;;;;;;11.10;81.63;101165.97;4156013;28;20092;-63
2022/10/05 06:17:03;;;;;;;42.15;16.38;;;;;;;11.06;81.94;101174.53;4148690;28;20049;-63
2022/10/05 06:19:12;;;;;;;27.33;16.02;;;;;;;11.06;81.86;101172.81;4147978;28;20041;-64
2022/10/05 06:21:22;;;;;;;31.15;15.40;;;;;;;11.03;81.47;101171.88;4140381;28;20516;-63
2022/10/05 06:23:33;;;;;;;40.00;19.90;;;;;;;11.03;82.07;101172.75;4144262;28;20061;-64
2022/10/05 06:25:48;;;;;;;29.83;16.67;;;;;;;11.04;81.79;101177.09;4132125;28;20046;-63
2022/10/05 06:28:02;;;;;;;21.65;14.77;;;;;;;11.11;81.87;101179.00;4164464;28;20068;-63
2022/10/05 06:30:11;;;;;;;28.10;16.48;;;;;;;11.18;81.89;101170.50;4146060;28;20057;-63
2022/10/05 06:32:26;;;;;;;43.40;16.80;;;;;;;11.21;80.94;101169.69;4144159;28;20507;-63
2022/10/05 06:34:53;;;;;;;31.10;18.88;;;;;;;11.25;81.36;101171.50;4146454;28;20137;-63
2022/10/05 06:37:00;;;;;;;26.45;17.95;;;;;;;11.35;81.29;101164.78;4148457;28;20046;-64
2022/10/05 06:39:31;;;;;;;28.23;19.48;;;;;;;11.35;81.25;101164.78;4147479;28;20550;-64
2022/10/05 06:41:49;;;;;;;23.20;17.27;;;;;;;11.35;81.46;101159.59;4141853;28;20245;-63
2022/10/05 06:43:58;;;;;;;19.20;14.90;;;;;;;11.40;81.40;101160.56;4147566;28;20046;-64
2022/10/05 06:46:29;;;;;;;36.67;18.83;;;;;;;11.49;80.93;101152.97;4131339;28;20051;-63
2022/10/05 06:49:12;;;;;;;21.65;16.10;;;;;;;11.39;80.98;101161.44;4157534;28;20041;-63
2022/10/05 06:51:50;;;;;;;34.65;18.88;;;;;;;11.50;80.85;101165.13;4117939;28;20061;-63
2022/10/05 06:54:13;;;;;;;25.65;17.90;;;;;;;11.44;80.63;101161.53;4140690;28;20130;-63
2022/10/05 06:56:25;;;;;;;116.35;21.60;;;;;;;11.43;81.43;101168.44;4147929;28;20045;-63
2022/10/05 06:58:44;;;;;;;31.08;15.77;;;;;;;11.57;80.21;101173.09;4165662;28;20068;-63
2022/10/05 07:00:52;;;;;;;70.72;20.80;;;;;;;11.43;81.00;101168.44;4163357;28;20053;-63
2022/10/05 07:03:03;;;;;;;32.83;17.50;;;;;;;11.45;80.78;101168.50;4145816;28;20582;-64
2022/10/05 07:05:37;;;;;;;36.15;18.58;;;;;;;11.49;80.42;101171.19;4144787;28;20037;-63
2022/10/05 07:07:51;;;;;;;50.55;18.38;;;;;;;11.57;79.75;101162.66;4134638;28;20045;-64
2022/10/05 07:10:08;;;;;;;22.98;17.10;;;;;;;11.33;81.06;101163.88;4142814;28;20046;-64
2022/10/05 07:12:43;;;;;;;23.27;18.80;;;;;;;11.39;81.53;101153.63;4164126;28;20041;-64
2022/10/05 07:15:01;;;;;;;23.25;17.33;;;;;;;11.34;80.98;101156.09;4126233;28;20059;-64
2022/10/05 07:17:19;;;;;;;26.33;17.85;;;;;;;11.39;80.86;101164.03;4164227;28;20091;-63
2022/10/05 07:19:34;;;;;;;20.58;16.83;;;;;;;11.38;81.64;101167.47;4115202;28;20521;-63
2022/10/05 07:21:44;;;;;;;18.13;14.43;;;;;;;11.28;81.66;101165.50;4147424;28;20132;-63
2022/10/05 07:23:56;;;;;;;20.20;15.70;;;;;;;11.32;81.26;101169.94;4146206;28;20798;-64
2022/10/05 07:26:06;;;;;;;26.70;16.88;;;;;;;11.27;82.19;101174.16;4131270;28;20390;-64
2022/10/05 07:28:17;;;;;;;18.45;14.27;;;;;;;11.27;82.40;101174.16;4145953;28;20128;-64
2022/10/05 07:30:22;;;;;;;14.50;11.65;;;;;;;11.24;82.79;101163.66;4142677;28;20125;-64
2022/10/05 07:32:33;;;;;;;18.48;15.52;;;;;;;11.34;82.23;101173.44;4156785;28;20042;-64
2022/10/05 07:34:47;;;;;;;14.25;11.95;;;;;;;11.33;82.24;101169.06;4140036;28;20042;-64
2022/10/05 07:39:22;;;;;;;16.92;13.32;;;;;;;11.38;82.06;101170.06;4144584;28;20084;-64
2022/10/05 07:41:53;;;;;;;16.45;13.63;;;;;;;11.47;81.76;101172.88;4147027;28;20487;-63
2022/10/05 07:44:04;;;;;;;15.40;13.02;;;;;;;11.56;82.11;101176.53;4130415;28;20045;-63
2022/10/05 07:46:21;;;;;;;17.77;13.75;;;;;;;11.72;81.42;101169.91;4130876;28;20057;-64
2022/10/05 07:48:32;;;;;;;20.48;16.60;;;;;;;11.82;81.18;101177.94;4131004;28;20046;-63
2022/10/05 07:50:43;;;;;;;14.88;12.18;;;;;;;11.76;81.60;101177.81;4121958;28;20054;-63
2022/10/05 07:52:53;;;;;;;17.02;14.48;;;;;;;11.70;81.76;101180.31;4146769;28;20459;-63
2022/10/05 07:55:05;;;;;;;20.35;16.75;;;;;;;11.95;81.56;101180.84;4147530;28;20034;-63
2022/10/05 07:57:20;;;;;;;16.95;12.77;;;;;;;11.88;82.30;101183.31;4130931;28;20081;-63
2022/10/05 07:59:34;;;;;;;20.58;13.98;;;;;;;11.84;81.99;101177.97;4124347;28;20042;-63
2022/10/05 08:01:43;;;;;;;17.88;15.25;;;;;;;11.93;82.58;101182.50;4163267;28;20033;-64
2022/10/05 08:03:52;;;;;;;17.48;13.48;;;;;;;11.87;82.49;101184.16;4130060;28;20042;-64
2022/10/05 08:06:04;;;;;;;;;;;;;;;11.78;83.07;101176.13;4148549;28;20053;-63
2022/10/05 08:08:16;;;;;;;14.43;11.63;;;;;;;11.94;83.13;101179.09;4148113;28;19940;-64
2022/10/05 08:10:26;;;;;;;;;;;;;;;11.99;82.89;101167.03;4153475;28;20037;-63
2022/10/05 08:12:34;;;;;;;15.93;11.40;;;;;;;12.18;82.83;101165.66;4150717;28;20280;-64
2022/10/05 08:14:44;;;;;;;17.05;13.00;;;;;;;12.28;82.51;101159.78;4153198;28;20044;-63
2022/10/05 08:16:52;;;;;;;14.48;11.20;;;;;;;12.47;81.92;101163.59;4156098;28;20503;-63
2022/10/05 08:18:59;;;;;;;16.17;11.75;;;;;;;12.61;81.79;101165.56;4145405;28;20492;-63
2022/10/05 08:21:10;;;;;;;16.77;12.70;;;;;;;12.66;81.68;101166.50;4156063;28;20049;-64
2022/10/05 08:23:21;;;;;;;14.75;10.23;;;;;;;12.77;81.53;101164.09;4144579;28;20038;-64
2022/10/05 08:25:26;;;;;;;16.40;12.80;;;;;;;12.80;81.29;101157.19;4151334;28;20049;-65
2022/10/05 08:27:38;;;;;;;13.30;11.27;;;;;;;12.80;81.69;101157.19;4147876;28;20488;-63
2022/10/05 08:29:50;;;;;;;14.43;11.82;;;;;;;12.92;81.46;101154.78;4147896;28;20095;-64
2022/10/05 08:32:00;;;;;;;14.45;11.32;;;;;;;13.03;81.14;101156.69;4150649;28;20388;-64
2022/10/05 08:34:19;;;;;;;15.50;10.23;;;;;;;13.14;81.15;101154.22;4143845;28;20492;-64
2022/10/05 08:36:27;;;;;;;15.35;10.48;;;;;;;13.31;80.24;101151.88;4147853;28;20104;-64
2022/10/05 08:38:32;;;;;;;15.10;10.43;;;;;;;13.56;80.13;101159.19;4147849;28;20042;-64
2022/10/05 08:41:08;;;;;;;15.15;11.90;;;;;;;13.54;80.07;101150.47;4147879;28;20089;-64
2022/10/05 08:43:26;;;;;;;11.52;8.77;;;;;;;13.55;79.82;101152.22;4147455;28;20044;-64
2022/10/05 08:46:10;;;;;;;10.60;9.10;;;;;;;13.62;79.87;101147.94;4155293;28;20057;-64
2022/10/05 08:48:42;;;;;;;10.73;8.10;;;;;;;13.69;80.17;101148.91;4147760;28;20042;-64
2022/10/05 08:51:09;;;;;;;12.32;8.77;;;;;;;13.79;80.06;101145.56;4130377;28;20081;-64
2022/10/05 08:53:23;;;;;;;14.95;10.90;;;;;;;13.92;80.12;101144.84;4153409;28;20045;-64
2022/10/05 08:55:37;;;;;;;12.73;9.75;;;;;;;14.03;79.79;101149.31;4155773;28;20069;-64
2022/10/05 08:58:13;;;;;;;12.65;10.02;;;;;;;14.09;79.48;101145.03;4146713;28;20122;-64
2022/10/05 09:00:19;;;;;;;11.73;9.48;;;;;;;14.11;79.60;101142.44;4154183;28;20037;-64
2022/10/05 09:02:32;;;;;;;17.15;13.43;;;;;;;14.15;78.12;101139.00;4159142;28;20037;-64
2022/10/05 09:04:52;;;;;;;15.18;10.93;;;;;;;14.13;78.32;101141.59;4134716;28;20393;-64
2022/10/05 09:07:09;;;;;;;12.50;10.65;;;;;;;14.23;78.27;101139.94;4133168;28;20050;-64
2022/10/05 09:09:41;;;;;;;14.15;10.88;;;;;;;14.36;77.35;101130.47;4151108;28;20042;-64
2022/10/05 09:11:53;;;;;;;13.52;10.02;;;;;;;14.35;77.00;101127.84;4158965;28;20104;-64
2022/10/05 09:14:14;;;;;;;10.25;8.82;;;;;;;14.35;77.48;101128.69;4150447;28;20385;-64
2022/10/05 09:16:38;;;;;;;13.25;10.65;;;;;;;14.44;77.07;101130.53;4156060;28;20045;-64
2022/10/05 09:19:16;;;;;;;10.80;9.02;;;;;;;14.45;77.44;101134.91;4148487;28;20467;-63
2022/10/05 09:21:34;;;;;;;13.43;10.50;;;;;;;14.57;77.48;101135.03;4148801;28;20053;-64
2022/10/05 09:23:39;;;;;;;10.02;8.82;;;;;;;14.66;76.82;101134.28;4148595;28;20046;-64
2022/10/05 09:25:57;;;;;;;11.13;8.68;;;;;;;14.74;76.87;101134.31;4158768;28;20034;-64
2022/10/05 09:28:17;;;;;;;9.60;7.82;;;;;;;14.88;76.59;101137.94;4160379;28;20087;-64
2022/10/05 09:30:26;;;;;;;9.63;8.07;;;;;;;14.99;75.87;101136.22;4166973;28;20037;-64
2022/10/05 09:33:03;;;;;;;12.07;9.20;;;;;;;15.08;75.52;101134.56;4166987;28;20519;-64
2022/10/05 09:35:21;;;;;;;9.63;8.05;;;;;;;15.27;75.51;101135.53;4148757;28;20046;-64
2022/10/05 09:37:56;;;;;;;9.88;8.20;;;;;;;15.32;75.06;101129.47;4161055;28;20129;-64
2022/10/05 09:40:40;;;;;;;10.07;8.13;;;;;;;15.43;74.93;101126.03;4150413;28;20049;-64
2022/10/05 09:43:14;;;;;;;12.43;8.02;;;;;;;15.44;74.33;101127.78;4135048;28;20088;-64
2022/10/05 09:45:42;;;;;;;11.40;8.25;;;;;;;15.40;74.43;101115.53;4130953;28;20145;-64
2022/10/05 09:48:12;;;;;;;10.95;8.63;;;;;;;15.59;73.69;101121.72;4157812;28;20479;-64
2022/10/05 09:50:47;;;;;;;9.60;7.63;;;;;;;15.65;73.94;101113.88;4161907;28;20084;-64
2022/10/05 09:53:13;;;;;;;10.05;7.57;;;;;;;15.68;73.56;101111.28;4166634;28;20107;-64
2022/10/05 09:55:51;;;;;;;10.07;7.50;;;;;;;15.73;72.85;101108.69;4159167;28;20049;-64
2022/10/05 09:58:30;;;;;;;9.90;7.32;;;;;;;15.82;72.78;101108.75;4150125;28;20061;-64
2022/10/05 10:00:48;;;;;;;8.77;6.97;;;;;;;15.94;72.32;101114.00;4150249;28;20104;-64
2022/10/05 10:03:41;;;;;;;8.45;6.55;;;;;;;15.99;72.44;101108.75;4149993;28;20101;-64
2022/10/05 10:06:27;;;;;;;8.80;7.30;;;;;;;16.27;71.68;101106.22;4152189;28;20045;-64
2022/10/05 10:08:43;;;;;;;9.35;6.63;;;;;;;16.34;72.12;101100.97;4129053;28;20058;-63
2022/10/05 10:11:00;;;;;;;6.88;5.55;;;;;;;16.49;71.28;101101.84;4148867;28;20124;-64
2022/10/05 10:13:24;;;;;;;8.25;5.78;;;;;;;16.55;70.94;101101.84;4148818;28;20062;-64
2022/10/05 10:16:03;;;;;;;6.72;5.40;;;;;;;16.43;71.34;101091.34;4163111;28;20037;-64
2022/10/05 10:18:51;;;;;;;7.45;5.60;;;;;;;16.50;71.23;101093.97;4140433;28;20049;-63
2022/10/05 10:21:20;;;;;;;7.30;5.03;;;;;;;16.64;71.69;101085.22;4099651;29;20047;-64